Time;durP1;ratioP1;P1;durP2;ratioP2;P2;SDS_P1;SDS_P2;PMS_P1;PMS_P2;Temp;Humidity;BMP_temperature;BMP_pressure;BME280_temperature;BME280_humidity;BME280_pressure;Samples;Min_cycle;Max_cycle;Signal;HPM_P1;HPM_P2
2023/01/17 00:00:52;;;;;;;2.83;0.40;;;;;;;;;;5100137;28;20244;-75
2023/01/17 00:03:18;;;;;;;2.73;0.60;;;;;;;;;;5102480;28;20176;-75
2023/01/17 00:11:11;;;;;;;0.20;0.10;;;;;;;;;;5090610;28;20210;-75
2023/01/17 00:13:36;;;;;;;0.43;0.20;;;;;;;;;;5091844;28;20175;-74
2023/01/17 00:16:01;;;;;;;0.20;0.20;;;;;;;;;;5098002;28;20172;-74
2023/01/17 00:18:27;;;;;;;0.20;0.10;;;;;;;;;;5098470;28;20197;-74
2023/01/17 00:26:19;;;;;;;0.37;0.27;;;;;;;;;;5104893;28;20179;-74
2023/01/17 01:35:21;;;;;;;2.13;0.43;;;;;;;;;;5096053;28;20484;-74
2023/01/17 01:37:46;;;;;;;4.67;0.40;;;;;;;;;;5092128;28;20188;-74
2023/01/17 01:40:12;;;;;;;1.00;0.50;;;;;;;;;;5075110;28;20199;-74
2023/01/17 01:42:46;;;;;;;2.07;0.53;;;;;;;;;;5094380;28;20677;-74
2023/01/17 01:45:16;;;;;;;3.70;0.50;;;;;;;;;;5094956;28;20179;-75
2023/01/17 01:47:42;;;;;;;2.67;0.60;;;;;;;;;;5092562;28;20534;-74
2023/01/17 01:50:09;;;;;;;1.17;0.70;;;;;;;;;;5098366;28;20192;-74
2023/01/17 01:52:35;;;;;;;5.77;0.70;;;;;;;;;;5094929;28;20596;-74
2023/01/17 01:55:10;;;;;;;4.80;0.80;;;;;;;;;;5089629;28;20203;-74
2023/01/17 01:57:43;;;;;;;5.67;1.33;;;;;;;;;;5094973;28;20193;-74
2023/01/17 02:00:20;;;;;;;0.97;0.60;;;;;;;;;;5092221;28;20249;-74
2023/01/17 02:02:47;;;;;;;3.50;0.83;;;;;;;;;;5079836;28;20206;-74
2023/01/17 02:05:13;;;;;;;8.57;1.50;;;;;;;;;;5098443;28;20180;-74
2023/01/17 02:07:41;;;;;;;7.10;0.80;;;;;;;;;;5085776;28;20194;-74
2023/01/17 02:10:06;;;;;;;1.13;0.97;;;;;;;;;;5106269;28;20354;-75
2023/01/17 02:12:32;;;;;;;1.80;0.57;;;;;;;;;;5093866;28;21240;-75
2023/01/17 02:14:58;;;;;;;5.03;0.47;;;;;;;;;;5091398;28;20188;-74
2023/01/17 02:17:42;;;;;;;2.57;0.57;;;;;;;;;;5084736;28;20176;-74
2023/01/17 02:20:19;;;;;;;2.27;0.60;;;;;;;;;;5104497;28;20200;-74
2023/01/17 02:22:56;;;;;;;4.63;0.60;;;;;;;;;;5097667;28;20203;-74
2023/01/17 02:25:24;;;;;;;2.43;0.70;;;;;;;;;;5092984;28;20168;-74
2023/01/17 02:27:52;;;;;;;2.57;0.70;;;;;;;;;;5093659;28;20559;-74
2023/01/17 02:30:34;;;;;;;2.83;0.60;;;;;;;;;;5104180;28;20278;-74
2023/01/17 02:33:00;;;;;;;2.93;0.50;;;;;;;;;;5083673;28;20180;-74
2023/01/17 02:35:28;;;;;;;3.47;0.57;;;;;;;;;;5092093;28;20657;-73
2023/01/17 02:38:06;;;;;;;1.80;0.40;;;;;;;;;;5098473;28;20176;-73
2023/01/17 02:40:31;;;;;;;1.73;0.40;;;;;;;;;;5101046;28;20814;-73
2023/01/17 02:42:59;;;;;;;6.23;1.17;;;;;;;;;;5093632;28;20208;-74
2023/01/17 02:45:24;;;;;;;2.73;0.70;;;;;;;;;;5078603;28;20176;-74
2023/01/17 02:47:50;;;;;;;3.80;1.73;;;;;;;;;;5089478;28;20176;-73
2023/01/17 02:50:20;;;;;;;4.53;0.50;;;;;;;;;;5094706;28;20263;-74
2023/01/17 02:52:45;;;;;;;2.13;0.70;;;;;;;;;;5102824;28;20414;-75
2023/01/17 02:55:13;;;;;;;5.17;0.60;;;;;;;;;;5074118;28;20198;-73
2023/01/17 02:58:04;;;;;;;4.77;0.60;;;;;;;;;;5076733;28;20549;-75
2023/01/17 03:00:41;;;;;;;0.73;0.40;;;;;;;;;;5091927;28;20294;-73
2023/01/17 03:03:17;;;;;;;2.10;0.50;;;;;;;;;;5098896;28;20302;-74
2023/01/17 03:06:03;;;;;;;2.47;0.70;;;;;;;;;;5091478;28;20265;-73
2023/01/17 03:08:29;;;;;;;1.83;0.63;;;;;;;;;;5093907;28;20819;-74
2023/01/17 03:10:54;;;;;;;1.07;0.43;;;;;;;;;;5094108;28;20199;-74
2023/01/17 03:13:20;;;;;;;1.30;0.40;;;;;;;;;;5105562;28;20232;-73
2023/01/17 03:15:45;;;;;;;1.60;0.40;;;;;;;;;;5079316;28;20590;-74
2023/01/17 03:18:12;;;;;;;1.60;0.50;;;;;;;;;;5112860;28;20206;-74
2023/01/17 03:20:38;;;;;;;3.10;0.67;;;;;;;;;;5093032;28;20195;-74
2023/01/17 03:23:03;;;;;;;2.27;0.67;;;;;;;;;;5095962;28;20210;-74
2023/01/17 03:25:28;;;;;;;4.30;0.60;;;;;;;;;;5097416;28;20560;-73
2023/01/17 03:27:53;;;;;;;3.33;0.80;;;;;;;;;;5091754;28;20180;-74
2023/01/17 03:30:21;;;;;;;2.97;0.57;;;;;;;;;;5097181;28;20192;-73
2023/01/17 03:32:46;;;;;;;2.93;1.10;;;;;;;;;;5100248;28;20192;-74
2023/01/17 03:35:12;;;;;;;4.93;1.30;;;;;;;;;;5097536;28;20194;-74
2023/01/17 03:37:37;;;;;;;1.90;1.30;;;;;;;;;;5108507;28;20183;-74
2023/01/17 03:40:03;;;;;;;3.93;1.43;;;;;;;;;;5101939;28;20233;-74
2023/01/17 03:42:28;;;;;;;2.67;1.00;;;;;;;;;;5081920;28;20203;-73
2023/01/17 03:44:53;;;;;;;3.53;0.90;;;;;;;;;;5085069;28;20588;-74
2023/01/17 03:47:18;;;;;;;4.00;1.63;;;;;;;;;;5092614;28;20176;-74
2023/01/17 03:49:43;;;;;;;5.00;0.70;;;;;;;;;;5097326;28;20200;-74
2023/01/17 03:52:09;;;;;;;3.20;0.67;;;;;;;;;;5081629;28;20214;-74
2023/01/17 03:54:34;;;;;;;3.50;1.00;;;;;;;;;;5083516;28;20668;-74
2023/01/17 03:56:59;;;;;;;4.83;0.80;;;;;;;;;;5102731;28;20180;-74
2023/01/17 03:59:24;;;;;;;1.30;0.90;;;;;;;;;;5110266;28;20176;-74
2023/01/17 04:01:50;;;;;;;2.10;0.80;;;;;;;;;;5107730;28;20698;-74
2023/01/17 04:04:15;;;;;;;2.10;0.70;;;;;;;;;;5111658;28;20175;-74
2023/01/17 04:06:41;;;;;;;5.57;1.00;;;;;;;;;;5109770;28;20163;-74
2023/01/17 04:09:06;;;;;;;1.87;0.60;;;;;;;;;;5109041;28;20180;-74
2023/01/17 04:11:31;;;;;;;2.10;0.67;;;;;;;;;;5106944;28;20200;-73
2023/01/17 04:13:56;;;;;;;2.37;0.77;;;;;;;;;;5111969;28;20205;-73
2023/01/17 04:16:24;;;;;;;3.00;0.50;;;;;;;;;;5105166;28;20184;-74
2023/01/17 04:18:50;;;;;;;1.30;0.70;;;;;;;;;;5106031;28;20180;-73
2023/01/17 04:21:15;;;;;;;6.93;0.97;;;;;;;;;;5105827;28;20311;-74
2023/01/17 04:23:40;;;;;;;3.77;0.80;;;;;;;;;;5110293;28;20160;-73
2023/01/17 04:26:05;;;;;;;5.37;0.97;;;;;;;;;;5112162;28;20172;-73
2023/01/17 04:28:31;;;;;;;2.00;0.50;;;;;;;;;;5112262;28;20172;-74
2023/01/17 04:30:56;;;;;;;3.50;0.90;;;;;;;;;;5111599;28;20902;-74
2023/01/17 04:33:21;;;;;;;3.27;0.83;;;;;;;;;;5101807;28;20195;-74
2023/01/17 04:35:47;;;;;;;4.93;0.90;;;;;;;;;;5110285;28;20171;-74
2023/01/17 04:38:12;;;;;;;2.03;0.67;;;;;;;;;;5085372;28;20668;-74
2023/01/17 04:40:37;;;;;;;2.67;0.80;;;;;;;;;;5109334;28;20206;-74
2023/01/17 04:43:02;;;;;;;3.73;0.90;;;;;;;;;;5108920;28;20199;-74
2023/01/17 04:45:27;;;;;;;2.93;0.50;;;;;;;;;;5112053;28;20211;-74
2023/01/17 04:47:53;;;;;;;1.37;0.40;;;;;;;;;;5101592;28;20531;-74
2023/01/17 04:50:18;;;;;;;1.43;0.60;;;;;;;;;;5107458;28;20199;-74
2023/01/17 04:52:43;;;;;;;2.03;0.70;;;;;;;;;;5112194;28;20175;-74
2023/01/17 04:55:08;;;;;;;2.27;0.93;;;;;;;;;;5110857;28;20231;-73
2023/01/17 04:57:34;;;;;;;2.00;0.80;;;;;;;;;;5092409;28;20180;-74
2023/01/17 04:59:59;;;;;;;8.13;1.50;;;;;;;;;;5122297;22;20731;-79
2023/01/17 05:02:27;;;;;;;3.43;1.03;;;;;;;;;;5106289;28;20211;-79
2023/01/17 05:04:52;;;;;;;4.73;1.30;;;;;;;;;;5086033;28;20205;-79
2023/01/17 05:07:17;;;;;;;2.83;0.80;;;;;;;;;;5108673;28;20262;-80
2023/01/17 05:09:43;;;;;;;1.77;0.80;;;;;;;;;;5111650;28;20191;-78
2023/01/17 05:12:08;;;;;;;3.50;0.97;;;;;;;;;;5093371;28;20233;-78
2023/01/17 05:14:34;;;;;;;3.70;0.77;;;;;;;;;;5099036;28;20283;-78
2023/01/17 05:16:59;;;;;;;4.40;1.70;;;;;;;;;;5091947;28;20671;-78
2023/01/17 05:19:25;;;;;;;3.20;1.10;;;;;;;;;;5082744;28;20179;-78
2023/01/17 05:21:50;;;;;;;5.77;1.20;;;;;;;;;;5075170;28;20210;-78
2023/01/17 05:24:16;;;;;;;8.40;1.77;;;;;;;;;;5097321;28;20233;-78
2023/01/17 05:26:42;;;;;;;12.27;1.10;;;;;;;;;;5074339;28;20643;-78
2023/01/17 05:29:07;;;;;;;5.90;1.30;;;;;;;;;;5097631;28;20570;-78
2023/01/17 05:31:32;;;;;;;5.47;0.80;;;;;;;;;;5087168;28;20219;-79
2023/01/17 05:33:58;;;;;;;3.20;1.00;;;;;;;;;;5093166;28;20183;-78
2023/01/17 05:36:23;;;;;;;5.17;2.37;;;;;;;;;;5095723;28;20251;-78
2023/01/17 05:38:48;;;;;;;2.10;1.23;;;;;;;;;;5078262;28;20184;-78
2023/01/17 05:41:13;;;;;;;5.50;1.07;;;;;;;;;;5081206;28;20236;-78
2023/01/17 05:43:38;;;;;;;4.00;1.63;;;;;;;;;;5101541;28;20172;-78
2023/01/17 05:46:04;;;;;;;1.73;1.27;;;;;;;;;;5094569;28;20180;-79
2023/01/17 05:48:29;;;;;;;3.87;1.20;;;;;;;;;;5087735;28;20243;-78
2023/01/17 05:50:54;;;;;;;4.63;1.00;;;;;;;;;;5080391;28;20250;-78
2023/01/17 05:53:19;;;;;;;3.70;1.10;;;;;;;;;;5060115;28;20208;-78
2023/01/17 05:55:44;;;;;;;7.43;0.97;;;;;;;;;;5062651;28;20173;-77
2023/01/17 05:58:15;;;;;;;8.33;1.10;;;;;;;;;;5075523;28;20168;-78
2023/01/17 06:00:40;;;;;;;6.23;1.20;;;;;;;;;;5081868;28;20203;-78
2023/01/17 06:03:05;;;;;;;4.50;1.20;;;;;;;;;;5083740;28;20548;-78
2023/01/17 06:05:30;;;;;;;7.80;1.30;;;;;;;;;;5080035;28;20172;-77
2023/01/17 06:07:56;;;;;;;4.63;0.90;;;;;;;;;;5079843;28;20469;-78
2023/01/17 06:10:21;;;;;;;2.67;0.77;;;;;;;;;;5078588;28;22120;-78
2023/01/17 06:12:47;;;;;;;2.53;1.10;;;;;;;;;;5069667;28;20188;-78
2023/01/17 06:15:13;;;;;;;7.03;1.27;;;;;;;;;;5081736;28;20646;-78
2023/01/17 06:17:39;;;;;;;4.83;1.00;;;;;;;;;;5076255;28;21139;-78
2023/01/17 06:20:04;;;;;;;5.03;1.43;;;;;;;;;;5077068;28;20204;-78
2023/01/17 06:22:30;;;;;;;9.20;1.03;;;;;;;;;;5079851;28;20196;-77
2023/01/17 06:24:55;;;;;;;1.57;0.70;;;;;;;;;;5077064;28;20179;-78
2023/01/17 06:27:20;;;;;;;4.50;1.00;;;;;;;;;;5076514;28;20228;-77
2023/01/17 06:29:45;;;;;;;3.93;1.30;;;;;;;;;;5075637;28;20300;-77
2023/01/17 06:32:12;;;;;;;7.00;1.23;;;;;;;;;;5062403;28;20172;-79
2023/01/17 06:34:38;;;;;;;2.80;1.17;;;;;;;;;;5078947;28;20176;-78
2023/01/17 06:37:03;;;;;;;6.63;1.30;;;;;;;;;;5074723;28;20188;-77
2023/01/17 06:39:28;;;;;;;2.23;1.00;;;;;;;;;;5074499;28;20184;-79
2023/01/17 06:41:53;;;;;;;11.77;1.40;;;;;;;;;;5065749;28;20211;-77
2023/01/17 06:44:19;;;;;;;7.53;1.03;;;;;;;;;;5080304;28;21372;-77
2023/01/17 06:46:46;;;;;;;5.47;1.17;;;;;;;;;;5079682;28;20176;-77
2023/01/17 06:49:11;;;;;;;5.90;1.80;;;;;;;;;;5063837;28;20180;-77
2023/01/17 06:51:36;;;;;;;9.07;1.60;;;;;;;;;;5077348;28;20266;-77
2023/01/17 06:54:01;;;;;;;4.43;1.27;;;;;;;;;;5058479;28;20189;-77
2023/01/17 06:56:28;;;;;;;4.07;1.30;;;;;;;;;;5062552;28;20657;-77
2023/01/17 06:58:54;;;;;;;3.40;1.20;;;;;;;;;;5074098;28;20259;-77
2023/01/17 07:01:19;;;;;;;2.33;1.20;;;;;;;;;;5059314;28;20789;-77
2023/01/17 07:03:44;;;;;;;4.63;1.20;;;;;;;;;;5078201;28;20184;-77
2023/01/17 07:06:10;;;;;;;8.53;1.20;;;;;;;;;;5073969;28;20685;-77
2023/01/17 07:08:35;;;;;;;3.57;1.07;;;;;;;;;;5073036;28;20595;-77
2023/01/17 07:11:04;;;;;;;4.20;1.70;;;;;;;;;;5057196;28;20216;-77
2023/01/17 07:13:32;;;;;;;8.93;1.50;;;;;;;;;;5080610;28;20514;-77
2023/01/17 07:15:58;;;;;;;7.17;1.10;;;;;;;;;;5063933;28;20675;-77
2023/01/17 07:18:24;;;;;;;2.80;0.90;;;;;;;;;;5082506;28;20245;-77
2023/01/17 07:20:49;;;;;;;9.13;1.20;;;;;;;;;;5074487;28;20259;-77
2023/01/17 07:23:14;;;;;;;7.87;1.30;;;;;;;;;;5076709;28;20217;-77
2023/01/17 07:25:39;;;;;;;3.90;1.50;;;;;;;;;;5066392;28;20204;-78
2023/01/17 07:28:05;;;;;;;3.67;1.40;;;;;;;;;;5087140;28;20172;-78
2023/01/17 07:30:30;;;;;;;2.40;1.00;;;;;;;;;;5080221;28;20211;-78
2023/01/17 07:32:55;;;;;;;5.00;1.37;;;;;;;;;;5094833;28;20211;-78
2023/01/17 07:35:21;;;;;;;3.17;1.10;;;;;;;;;;5099822;28;20172;-78
2023/01/17 07:37:49;;;;;;;7.67;1.23;;;;;;;;;;5081660;28;20258;-78
2023/01/17 07:40:18;;;;;;;5.53;1.20;;;;;;;;;;5081442;28;20204;-78
2023/01/17 07:42:43;;;;;;;4.70;1.43;;;;;;;;;;5084704;28;20300;-77
2023/01/17 07:45:09;;;;;;;3.13;0.83;;;;;;;;;;5067481;28;20653;-78
2023/01/17 07:47:34;;;;;;;1.47;1.00;;;;;;;;;;5099429;28;20653;-78
2023/01/17 07:50:00;;;;;;;4.53;1.00;;;;;;;;;;5100633;28;20242;-78
2023/01/17 07:52:26;;;;;;;3.73;1.07;;;;;;;;;;5083146;28;20206;-78
2023/01/17 07:54:51;;;;;;;8.10;1.30;;;;;;;;;;5099522;28;20192;-78
2023/01/17 07:57:16;;;;;;;4.77;1.50;;;;;;;;;;5082006;28;20556;-78
2023/01/17 07:59:41;;;;;;;2.50;1.23;;;;;;;;;;5104445;28;20204;-78
2023/01/17 08:02:13;;;;;;;4.17;1.10;;;;;;;;;;5093520;28;20638;-77
2023/01/17 08:04:39;;;;;;;2.00;1.20;;;;;;;;;;5081834;28;20200;-78
2023/01/17 08:07:04;;;;;;;3.23;1.53;;;;;;;;;;5100175;28;20195;-78
2023/01/17 08:09:29;;;;;;;5.57;1.17;;;;;;;;;;5082462;28;20187;-76
2023/01/17 08:11:54;;;;;;;1.67;1.17;;;;;;;;;;5093257;28;20196;-78
2023/01/17 08:14:19;;;;;;;13.87;1.70;;;;;;;;;;5095311;28;20164;-76
2023/01/17 08:16:45;;;;;;;2.70;1.30;;;;;;;;;;5074708;28;20221;-77
2023/01/17 08:19:10;;;;;;;5.20;1.70;;;;;;;;;;5087568;28;20184;-77
2023/01/17 08:21:35;;;;;;;4.90;2.07;;;;;;;;;;5074531;28;20705;-77
2023/01/17 08:24:00;;;;;;;6.73;1.43;;;;;;;;;;5086975;28;20180;-77
2023/01/17 08:26:26;;;;;;;6.17;1.70;;;;;;;;;;5092919;28;20232;-77
2023/01/17 08:28:55;;;;;;;4.40;2.17;;;;;;;;;;5075351;28;20173;-77
2023/01/17 08:31:20;;;;;;;7.13;1.93;;;;;;;;;;5085184;28;20700;-79
2023/01/17 08:33:46;;;;;;;8.33;2.50;;;;;;;;;;5074461;28;20182;-77
2023/01/17 08:36:11;;;;;;;4.40;1.60;;;;;;;;;;5090404;28;20186;-77
2023/01/17 08:38:36;;;;;;;4.03;1.70;;;;;;;;;;5092823;28;20164;-77
2023/01/17 08:41:01;;;;;;;1.93;1.53;;;;;;;;;;5092123;28;20200;-77
2023/01/17 08:43:27;;;;;;;4.73;1.40;;;;;;;;;;5091470;28;20658;-77
2023/01/17 08:45:54;;;;;;;4.70;1.60;;;;;;;;;;5092315;28;20607;-77
2023/01/17 08:48:20;;;;;;;5.33;1.90;;;;;;;;;;5092046;28;20171;-76
2023/01/17 08:50:45;;;;;;;3.53;1.53;;;;;;;;;;5073432;28;20257;-76
2023/01/17 08:53:10;;;;;;;7.17;2.03;;;;;;;;;;5093386;28;20324;-78
2023/01/17 08:55:38;;;;;;;5.93;1.87;;;;;;;;;;5073201;28;20221;-77
2023/01/17 08:58:03;;;;;;;8.73;1.73;;;;;;;;;;5093313;28;20532;-77
2023/01/17 09:00:30;;;;;;;6.90;1.60;;;;;;;;;;5092353;28;20218;-76
2023/01/17 09:02:56;;;;;;;4.63;1.80;;;;;;;;;;5093950;28;20196;-77
2023/01/17 09:05:21;;;;;;;4.43;1.50;;;;;;;;;;5087804;28;20269;-77
2023/01/17 09:07:46;;;;;;;2.50;1.33;;;;;;;;;;5094648;28;20215;-77
2023/01/17 09:10:11;;;;;;;4.23;1.83;;;;;;;;;;5091400;28;20618;-77
2023/01/17 09:12:37;;;;;;;8.23;3.57;;;;;;;;;;5094969;28;20199;-77
2023/01/17 09:15:03;;;;;;;2.87;1.70;;;;;;;;;;5074856;28;20177;-77
2023/01/17 09:17:29;;;;;;;4.30;1.60;;;;;;;;;;5093988;28;20176;-77
2023/01/17 09:19:54;;;;;;;4.50;2.10;;;;;;;;;;5091850;28;20226;-77
2023/01/17 09:22:19;;;;;;;5.00;1.63;;;;;;;;;;5091363;28;20241;-77
2023/01/17 09:24:45;;;;;;;6.80;3.20;;;;;;;;;;5091424;28;20250;-77
2023/01/17 09:27:11;;;;;;;5.00;1.60;;;;;;;;;;5092675;28;20204;-77
2023/01/17 09:29:36;;;;;;;6.23;1.93;;;;;;;;;;5091730;28;20590;-77
2023/01/17 09:32:01;;;;;;;4.10;1.93;;;;;;;;;;5082466;28;20212;-77
2023/01/17 09:34:26;;;;;;;3.73;1.87;;;;;;;;;;5090968;28;20184;-77
2023/01/17 09:36:51;;;;;;;5.27;2.20;;;;;;;;;;5085381;28;20175;-77
2023/01/17 09:39:17;;;;;;;4.23;2.00;;;;;;;;;;5080179;28;20172;-78
2023/01/17 09:41:48;;;;;;;8.77;2.90;;;;;;;;;;5100755;28;20204;-78
2023/01/17 09:44:25;;;;;;;4.07;2.70;;;;;;;;;;5074113;28;20278;-77
2023/01/17 09:46:52;;;;;;;7.43;3.27;;;;;;;;;;5100184;28;20180;-77
2023/01/17 09:49:17;;;;;;;5.37;2.80;;;;;;;;;;5087931;28;20176;-78
2023/01/17 09:51:43;;;;;;;6.67;3.73;;;;;;;;;;5094081;28;20292;-78
2023/01/17 09:54:20;;;;;;;3.80;3.20;;;;;;;;;;5095171;28;20176;-77
2023/01/17 09:56:50;;;;;;;6.57;3.33;;;;;;;;;;5081352;28;20176;-78
2023/01/17 09:59:30;;;;;;;6.67;4.03;;;;;;;;;;5092067;28;20681;-78
2023/01/17 10:02:08;;;;;;;6.00;3.93;;;;;;;;;;5092885;28;20187;-77
2023/01/17 10:04:33;;;;;;;10.63;3.77;;;;;;;;;;5093909;28;20180;-77
2023/01/17 10:07:01;;;;;;;7.43;3.70;;;;;;;;;;5091318;28;20183;-78
2023/01/17 10:09:29;;;;;;;8.60;4.20;;;;;;;;;;5094840;28;20442;-79
2023/01/17 10:11:55;;;;;;;8.77;4.43;;;;;;;;;;5075457;28;20208;-78
2023/01/17 10:14:44;;;;;;;6.07;4.07;;;;;;;;;;5093863;28;20177;-78
2023/01/17 10:17:12;;;;;;;7.17;4.43;;;;;;;;;;5090317;28;20703;-78
2023/01/17 10:19:57;;;;;;;7.30;4.43;;;;;;;;;;5088313;28;20180;-78
2023/01/17 10:22:32;;;;;;;6.77;3.90;;;;;;;;;;5093571;28;20175;-78
2023/01/17 10:25:12;;;;;;;12.80;4.87;;;;;;;;;;5072042;28;20176;-77
2023/01/17 10:27:40;;;;;;;10.20;5.77;;;;;;;;;;5086547;28;20180;-78
2023/01/17 10:30:16;;;;;;;9.07;5.30;;;;;;;;;;5093939;28;20204;-78
2023/01/17 10:32:44;;;;;;;8.07;4.87;;;;;;;;;;5080116;28;20325;-78
2023/01/17 10:35:16;;;;;;;12.83;5.47;;;;;;;;;;5092501;28;20184;-78
2023/01/17 10:37:42;;;;;;;6.57;4.47;;;;;;;;;;5075823;28;20192;-78
2023/01/17 10:40:19;;;;;;;6.93;4.80;;;;;;;;;;5091195;28;20233;-78
2023/01/17 10:42:52;;;;;;;8.37;3.97;;;;;;;;;;5071203;28;20179;-78
2023/01/17 10:45:19;;;;;;;10.23;4.67;;;;;;;;;;5093019;28;20785;-78
2023/01/17 10:47:47;;;;;;;6.07;4.23;;;;;;;;;;5091888;28;20184;-78
2023/01/17 10:50:13;;;;;;;7.73;4.40;;;;;;;;;;5086963;28;20212;-78
2023/01/17 10:52:55;;;;;;;8.33;3.57;;;;;;;;;;5095240;28;20198;-78
2023/01/17 10:55:37;;;;;;;11.13;3.50;;;;;;;;;;5093290;28;20172;-78
2023/01/17 10:58:03;;;;;;;6.00;3.20;;;;;;;;;;5092557;28;20188;-78
2023/01/17 11:00:38;;;;;;;9.17;3.37;;;;;;;;;;5100528;22;20741;-73
2023/01/17 11:03:04;;;;;;;5.57;3.43;;;;;;;;;;5112120;28;20551;-73
2023/01/17 11:05:30;;;;;;;4.60;3.17;;;;;;;;;;5087643;28;20172;-73
2023/01/17 11:07:57;;;;;;;4.27;2.37;;;;;;;;;;5093532;28;20175;-73
2023/01/17 11:10:35;;;;;;;5.07;2.83;;;;;;;;;;5105735;28;20350;-73
2023/01/17 11:13:01;;;;;;;2.57;1.97;;;;;;;;;;5105128;28;20306;-73
2023/01/17 11:15:26;;;;;;;6.00;3.07;;;;;;;;;;5105555;28;20242;-73
2023/01/17 11:18:00;;;;;;;6.13;2.63;;;;;;;;;;5101275;28;20694;-73
2023/01/17 11:20:38;;;;;;;4.87;2.40;;;;;;;;;;5087429;28;20195;-73
2023/01/17 11:23:03;;;;;;;7.80;3.27;;;;;;;;;;5111604;28;20187;-73
2023/01/17 11:25:32;;;;;;;3.90;2.80;;;;;;;;;;5103585;28;20278;-73
2023/01/17 11:28:17;;;;;;;5.60;2.73;;;;;;;;;;5109392;28;20188;-73
2023/01/17 11:30:50;;;;;;;5.60;2.77;;;;;;;;;;5085536;28;20203;-73
2023/01/17 11:33:25;;;;;;;6.40;3.03;;;;;;;;;;5105489;28;20246;-73
2023/01/17 11:35:50;;;;;;;4.53;3.30;;;;;;;;;;5096420;28;20632;-73
2023/01/17 11:38:15;;;;;;;5.90;3.00;;;;;;;;;;5093462;28;20271;-73
2023/01/17 11:40:44;;;;;;;4.50;2.80;;;;;;;;;;5093968;28;20191;-73
2023/01/17 11:43:09;;;;;;;5.83;2.60;;;;;;;;;;5107470;28;20184;-73
2023/01/17 11:45:35;;;;;;;5.30;2.83;;;;;;;;;;5104791;28;20172;-73
2023/01/17 11:48:06;;;;;;;5.13;3.10;;;;;;;;;;5106618;28;20412;-73
2023/01/17 11:50:32;;;;;;;6.60;2.57;;;;;;;;;;5113803;28;20199;-73
2023/01/17 11:53:04;;;;;;;4.30;2.83;;;;;;;;;;5115391;28;20203;-73
2023/01/17 11:55:29;;;;;;;4.63;2.30;;;;;;;;;;5106951;28;20198;-73
2023/01/17 11:57:54;;;;;;;6.30;2.90;;;;;;;;;;5115334;28;20652;-73
2023/01/17 12:00:26;;;;;;;2.73;2.07;;;;;;;;;;5094601;28;20207;-73
2023/01/17 12:02:57;;;;;;;6.37;2.43;;;;;;;;;;5100404;28;20211;-73
2023/01/17 12:05:37;;;;;;;8.37;2.13;;;;;;;;;;5113204;28;20267;-73
2023/01/17 12:08:16;;;;;;;4.23;2.50;;;;;;;;;;5115320;28;20179;-73
2023/01/17 12:10:45;;;;;;;3.37;1.80;;;;;;;;;;5088576;28;20214;-73
2023/01/17 12:16:31;;;;;;;3.67;2.33;;;;;;;;;;5112891;28;20255;-73
2023/01/17 12:19:04;;;;;;;3.70;2.03;;;;;;;;;;5104711;27;20179;-73
2023/01/17 12:21:36;;;;;;;2.80;1.90;;;;;;;;;;5104977;28;20203;-73
2023/01/17 12:24:01;;;;;;;4.23;2.23;;;;;;;;;;5115255;28;20659;-73
2023/01/17 12:26:38;;;;;;;5.63;2.30;;;;;;;;;;5114076;28;20191;-73
2023/01/17 12:29:04;;;;;;;3.90;1.60;;;;;;;;;;5114483;28;20175;-73
2023/01/17 12:31:38;;;;;;;5.13;2.10;;;;;;;;;;5086879;28;20200;-73
2023/01/17 12:34:03;;;;;;;3.93;1.73;;;;;;;;;;5112984;28;20183;-73
2023/01/17 12:36:31;;;;;;;7.47;2.27;;;;;;;;;;5106562;28;20206;-73
2023/01/17 12:39:00;;;;;;;2.27;1.63;;;;;;;;;;5093661;28;20187;-73
2023/01/17 12:41:27;;;;;;;1.97;1.30;;;;;;;;;;5105297;28;20203;-73
2023/01/17 12:43:55;;;;;;;3.80;1.70;;;;;;;;;;5114372;28;20183;-73
2023/01/17 12:46:25;;;;;;;4.47;1.60;;;;;;;;;;5093677;28;20175;-72
2023/01/17 12:48:53;;;;;;;2.13;1.50;;;;;;;;;;5112098;28;20182;-72
2023/01/17 12:51:22;;;;;;;2.83;1.50;;;;;;;;;;5090319;28;20203;-73
2023/01/17 12:53:47;;;;;;;1.93;1.67;;;;;;;;;;5095255;28;20319;-72
2023/01/17 12:56:18;;;;;;;3.23;1.63;;;;;;;;;;5105356;28;20179;-73
2023/01/17 12:58:46;;;;;;;3.70;1.93;;;;;;;;;;5097750;28;20168;-72
2023/01/17 13:01:17;;;;;;;2.07;1.87;;;;;;;;;;5113337;28;20233;-73
2023/01/17 13:03:59;;;;;;;2.37;1.77;;;;;;;;;;5087910;28;20279;-72
2023/01/17 13:06:27;;;;;;;5.77;2.83;;;;;;;;;;5094633;28;20671;-73
2023/01/17 13:08:55;;;;;;;3.53;1.93;;;;;;;;;;5113573;28;20175;-74
2023/01/17 13:11:32;;;;;;;4.17;2.00;;;;;;;;;;5086010;28;20206;-72
2023/01/17 13:13:58;;;;;;;3.23;2.20;;;;;;;;;;5095408;28;20656;-72
2023/01/17 13:16:29;;;;;;;4.43;2.27;;;;;;;;;;5111687;28;20179;-73
2023/01/17 13:18:55;;;;;;;2.37;1.57;;;;;;;;;;5112435;27;20179;-73
2023/01/17 13:21:26;;;;;;;2.67;1.60;;;;;;;;;;5112875;28;20196;-72
2023/01/17 13:24:06;;;;;;;4.20;1.50;;;;;;;;;;5113882;28;20624;-73
2023/01/17 13:26:31;;;;;;;1.80;1.53;;;;;;;;;;5106426;28;20180;-73
2023/01/17 13:29:03;;;;;;;4.97;1.80;;;;;;;;;;5110466;28;20183;-72
2023/01/17 13:31:28;;;;;;;4.00;1.77;;;;;;;;;;5101253;28;20245;-74
2023/01/17 13:34:10;;;;;;;2.00;1.03;;;;;;;;;;5086286;28;20255;-74
2023/01/17 13:36:35;;;;;;;3.17;1.50;;;;;;;;;;5105256;28;20175;-74
2023/01/17 13:39:09;;;;;;;1.50;1.27;;;;;;;;;;5094771;28;20663;-73
2023/01/17 13:41:37;;;;;;;2.23;1.20;;;;;;;;;;5105845;28;20671;-73
2023/01/17 13:44:20;;;;;;;3.20;1.50;;;;;;;;;;5113394;28;20175;-73
2023/01/17 13:46:55;;;;;;;4.13;1.80;;;;;;;;;;5088738;28;20179;-73
2023/01/17 13:49:48;;;;;;;7.10;1.60;;;;;;;;;;5107803;28;20175;-73
2023/01/17 13:52:19;;;;;;;39.33;4.70;;;;;;;;;;5106997;28;20192;-73
2023/01/17 13:54:44;;;;;;;2.73;1.07;;;;;;;;;;5105358;28;20758;-73
2023/01/17 13:57:22;;;;;;;2.43;1.20;;;;;;;;;;5101556;28;20176;-72
2023/01/17 13:59:47;;;;;;;1.80;1.27;;;;;;;;;;5109010;28;20270;-73
2023/01/17 14:02:30;;;;;;;4.23;1.50;;;;;;;;;;5110486;28;20287;-73
2023/01/17 14:05:14;;;;;;;3.80;1.07;;;;;;;;;;5110264;28;20171;-73
2023/01/17 14:07:43;;;;;;;2.97;1.27;;;;;;;;;;5102995;28;20167;-72
2023/01/17 14:10:34;;;;;;;2.53;1.00;;;;;;;;;;5116756;27;20218;-72
2023/01/17 14:13:00;;;;;;;4.47;1.40;;;;;;;;;;5069018;28;20566;-73
2023/01/17 14:15:26;;;;;;;2.67;1.40;;;;;;;;;;5083413;28;20164;-73
2023/01/17 14:17:56;;;;;;;2.80;1.50;;;;;;;;;;5112101;27;20183;-73
2023/01/17 14:20:25;;;;;;;2.40;1.27;;;;;;;;;;5088540;28;20270;-72
2023/01/17 14:22:52;;;;;;;1.70;1.13;;;;;;;;;;5112433;28;20685;-73
2023/01/17 14:25:26;;;;;;;2.67;1.40;;;;;;;;;;5108841;28;20607;-73
2023/01/17 14:27:53;;;;;;;4.23;1.00;;;;;;;;;;5104312;28;20182;-73
2023/01/17 14:30:26;;;;;;;1.87;1.10;;;;;;;;;;5107405;28;20214;-73
2023/01/17 14:32:57;;;;;;;2.13;1.10;;;;;;;;;;5107462;28;20531;-73
2023/01/17 14:35:22;;;;;;;2.93;1.13;;;;;;;;;;5110766;28;20266;-73
2023/01/17 14:37:49;;;;;;;2.50;1.20;;;;;;;;;;5106037;28;20211;-72
2023/01/17 14:40:18;;;;;;;1.73;1.23;;;;;;;;;;5088104;28;20192;-73
2023/01/17 14:42:44;;;;;;;1.77;0.73;;;;;;;;;;5110166;28;20210;-73
2023/01/17 14:45:12;;;;;;;1.67;0.80;;;;;;;;;;5106933;28;20178;-73
2023/01/17 14:47:38;;;;;;;1.10;0.80;;;;;;;;;;5112261;28;20167;-73
2023/01/17 14:50:09;;;;;;;0.93;0.60;;;;;;;;;;5110476;28;20563;-73
2023/01/17 14:52:35;;;;;;;2.27;1.00;;;;;;;;;;5106588;28;20256;-73
2023/01/17 14:55:03;;;;;;;2.33;0.70;;;;;;;;;;5111486;28;20827;-73
2023/01/17 14:57:28;;;;;;;1.60;0.50;;;;;;;;;;5112057;28;20648;-73
2023/01/17 15:00:11;;;;;;;1.10;0.50;;;;;;;;;;5106227;28;20176;-73
2023/01/17 15:02:41;;;;;;;5.30;1.00;;;;;;;;;;5088342;28;20218;-73
2023/01/17 15:05:08;;;;;;;2.57;0.60;;;;;;;;;;5102582;28;20175;-73
2023/01/17 15:07:35;;;;;;;1.90;0.57;;;;;;;;;;5106056;28;20182;-73
2023/01/17 15:10:02;;;;;;;7.00;1.30;;;;;;;;;;5109366;28;20272;-72
2023/01/17 15:12:27;;;;;;;1.93;1.20;;;;;;;;;;5101782;28;20195;-73
2023/01/17 15:14:57;;;;;;;3.30;1.07;;;;;;;;;;5108213;28;20179;-73
2023/01/17 15:17:25;;;;;;;1.53;1.10;;;;;;;;;;5097592;28;20187;-73
2023/01/17 15:19:58;;;;;;;1.43;0.90;;;;;;;;;;5112750;28;20189;-73
2023/01/17 15:22:24;;;;;;;4.63;1.50;;;;;;;;;;5097120;28;20298;-73
2023/01/17 15:24:50;;;;;;;2.27;0.90;;;;;;;;;;5115233;28;20215;-73
2023/01/17 15:27:16;;;;;;;1.63;0.90;;;;;;;;;;5116156;28;20594;-72
2023/01/17 15:29:42;;;;;;;1.50;0.97;;;;;;;;;;5108058;28;20263;-73
2023/01/17 15:32:15;;;;;;;1.37;0.93;;;;;;;;;;5109314;28;20652;-73
2023/01/17 15:34:45;;;;;;;1.63;0.90;;;;;;;;;;5112079;28;20187;-72
2023/01/17 15:37:21;;;;;;;1.37;0.90;;;;;;;;;;5110294;28;20676;-73
2023/01/17 15:39:46;;;;;;;1.63;1.20;;;;;;;;;;5106998;28;20175;-73
2023/01/17 15:42:30;;;;;;;1.90;1.50;;;;;;;;;;5113480;28;20468;-73
2023/01/17 15:44:58;;;;;;;2.47;1.10;;;;;;;;;;5100334;28;20175;-73
2023/01/17 15:47:29;;;;;;;1.57;1.40;;;;;;;;;;5109855;28;20211;-72
2023/01/17 15:49:55;;;;;;;5.53;1.43;;;;;;;;;;5110438;28;20175;-72
2023/01/17 15:52:20;;;;;;;3.93;1.27;;;;;;;;;;5104823;28;20184;-72
2023/01/17 15:54:52;;;;;;;2.77;1.20;;;;;;;;;;5096169;28;20211;-73
2023/01/17 15:57:23;;;;;;;3.50;1.47;;;;;;;;;;5095149;28;20175;-73
2023/01/17 15:59:53;;;;;;;2.00;1.13;;;;;;;;;;5110916;28;20266;-72
2023/01/17 16:02:29;;;;;;;2.93;1.30;;;;;;;;;;5114935;28;20264;-73
2023/01/17 16:04:55;;;;;;;3.43;1.10;;;;;;;;;;5116142;28;20171;-74
2023/01/17 16:07:21;;;;;;;2.00;1.20;;;;;;;;;;5114756;28;20182;-73
2023/01/17 16:09:46;;;;;;;1.33;1.00;;;;;;;;;;5115423;28;20172;-74